Time,TemperatureF,DewpointF,PressureIn,WindDirection,WindDirectionDegrees,WindSpeedMPH,WindSpeedGustMPH,Humidity,HourlyPrecipIn,Conditions,Clouds,dailyrainin,SoftwareType,DateUTC
2013-02-07 05:36:00,30.9,19.4,31.77,East,83,3.0,4.0,62,0.00,,,0.00,Wunderground v.1.15,2013-02-07 13:36:00,
2013-02-07 05:41:00,30.9,19.4,31.77,East,83,3.0,4.0,62,0.00,,,0.00,Wunderground v.1.15,2013-02-07 13:41:00,
2013-02-07 05:46:00,30.9,19.0,31.77,East,82,3.0,3.0,61,0.00,,,0.00,Wunderground v.1.15,2013-02-07 13:46:00,
2013-02-07 05:56:00,31.0,18.7,31.77,East,80,3.0,3.0,60,0.00,,,0.00,Wunderground v.1.15,2013-02-07 13:56:00,
2013-02-07 06:06:00,31.4,18.7,31.77,ENE,77,3.0,4.0,59,0.00,,,0.00,Wunderground v.1.15,2013-02-07 14:06:00,
2013-02-07 06:16:00,31.5,18.8,31.77,ENE,76,3.0,3.0,59,0.00,,,0.00,Wunderground v.1.15,2013-02-07 14:16:00,
2013-02-07 06:21:00,31.4,19.1,31.77,ENE,77,3.0,3.0,60,0.00,,,0.00,Wunderground v.1.15,2013-02-07 14:21:00,
2013-02-07 06:26:00,31.1,18.8,31.77,ENE,77,2.0,3.0,60,0.00,,,0.00,Wunderground v.1.15,2013-02-07 14:26:00,
2013-02-07 06:31:00,30.9,18.6,31.77,ENE,77,3.0,3.0,60,0.00,,,0.00,Wunderground v.1.15,2013-02-07 14:31:00,
2013-02-07 06:36:00,30.6,18.0,31.77,ENE,77,3.0,3.0,59,0.00,,,0.00,Wunderground v.1.15,2013-02-07 14:36:00,
2013-02-07 06:41:00,30.6,18.0,31.77,ENE,77,3.0,3.0,59,0.00,,,0.00,Wunderground v.1.15,2013-02-07 14:41:00,
2013-02-07 06:46:00,30.7,18.4,31.77,ENE,77,3.0,3.0,60,0.00,,,0.00,Wunderground v.1.15,2013-02-07 14:46:00,
2013-02-07 06:51:00,30.8,18.1,31.77,ENE,76,3.0,3.0,59,0.00,,,0.00,Wunderground v.1.15,2013-02-07 14:51:00,
2013-02-07 06:56:00,30.8,18.9,31.77,ENE,76,2.0,3.0,61,0.00,,,0.00,Wunderground v.1.15,2013-02-07 14:56:00,
2013-02-07 07:01:00,30.8,18.5,31.77,ENE,76,2.0,4.0,60,0.00,,,0.00,Wunderground v.1.15,2013-02-07 15:01:00,
2013-02-07 07:06:00,30.7,18.4,31.77,ENE,76,2.0,4.0,60,0.00,,,0.00,Wunderground v.1.15,2013-02-07 15:06:00,
2013-02-07 07:11:00,30.6,18.0,31.77,ENE,77,2.0,3.0,59,0.00,,,0.00,Wunderground v.1.15,2013-02-07 15:11:00,
2013-02-07 07:16:00,30.7,18.1,31.77,ENE,76,3.0,3.0,59,0.00,,,0.00,Wunderground v.1.15,2013-02-07 15:16:00,
2013-02-07 07:21:00,30.9,19.0,31.77,ENE,77,3.0,3.0,61,0.00,,,0.00,Wunderground v.1.15,2013-02-07 15:21:00,
2013-02-07 07:31:00,30.9,20.1,31.77,ENE,77,2.0,2.0,64,0.00,,,0.00,Wunderground v.1.15,2013-02-07 15:31:00,
2013-02-07 07:36:00,30.9,18.6,31.77,ENE,76,2.0,2.0,60,0.00,,,0.00,Wunderground v.1.15,2013-02-07 15:36:00,
2013-02-07 07:46:00,30.9,18.6,31.77,ENE,77,3.0,3.0,60,0.00,,,0.00,Wunderground v.1.15,2013-02-07 15:46:00,
2013-02-07 07:51:00,31.0,18.7,31.77,ENE,77,3.0,3.0,60,0.00,,,0.00,Wunderground v.1.15,2013-02-07 15:51:00,
2013-02-07 07:56:00,31.1,18.8,31.77,ENE,77,3.0,3.0,60,0.00,,,0.00,Wunderground v.1.15,2013-02-07 15:56:00,
2013-02-07 08:01:00,31.2,17.7,31.77,ENE,77,3.0,3.0,57,0.00,,,0.00,Wunderground v.1.15,2013-02-07 16:01:00,
2013-02-07 08:11:00,31.9,18.0,31.77,ENE,76,2.0,2.0,56,0.00,,,0.00,Wunderground v.1.15,2013-02-07 16:11:00,
2013-02-07 08:16:00,32.3,18.3,31.77,ENE,77,2.0,2.0,56,0.00,,,0.00,Wunderground v.1.15,2013-02-07 16:16:00,
2013-02-07 08:26:00,32.1,19.4,31.77,ENE,77,2.0,2.0,59,0.00,,,0.00,Wunderground v.1.15,2013-02-07 16:26:00,
2013-02-07 08:31:00,31.9,19.6,31.77,ENE,77,2.0,2.0,60,0.00,,,0.00,Wunderground v.1.15,2013-02-07 16:31:00,
2013-02-07 08:36:00,31.7,19.4,31.77,ENE,77,2.0,2.0,60,0.00,,,0.00,Wunderground v.1.15,2013-02-07 16:36:00,
2013-02-07 08:41:00,31.6,19.7,31.77,ENE,77,2.0,2.0,61,0.00,,,0.00,Wunderground v.1.15,2013-02-07 16:41:00,
2013-02-07 08:51:00,32.8,20.0,31.77,ENE,77,2.0,2.0,59,0.00,,,0.00,Wunderground v.1.15,2013-02-07 16:51:00,
2013-02-07 08:56:00,34.4,21.1,31.77,ENE,77,1.0,2.0,58,0.00,,,0.00,Wunderground v.1.15,2013-02-07 16:56:00,
2013-02-07 09:01:00,36.1,21.9,31.77,ENE,76,1.0,4.0,56,0.00,,,0.00,Wunderground v.1.15,2013-02-07 17:01:00,
2013-02-07 09:11:00,39.4,22.8,31.77,ENE,76,1.0,1.0,51,0.00,,,0.00,Wunderground v.1.15,2013-02-07 17:11:00,
2013-02-07 09:16:00,40.7,23.5,31.77,ENE,76,0.0,1.0,50,0.00,,,0.00,Wunderground v.1.15,2013-02-07 17:16:00,
2013-02-07 09:21:00,41.8,24.0,31.77,ENE,76,0.0,0.0,49,0.00,,,0.00,Wunderground v.1.15,2013-02-07 17:21:00,
2013-02-07 09:26:00,42.6,23.8,31.77,ENE,76,0.0,0.0,47,0.00,,,0.00,Wunderground v.1.15,2013-02-07 17:26:00,
2013-02-07 09:31:00,43.3,24.9,31.77,ENE,76,0.0,1.0,48,0.00,,,0.00,Wunderground v.1.15,2013-02-07 17:31:00,
2013-02-07 09:36:00,44.1,25.1,31.77,ENE,76,0.0,1.0,47,0.00,,,0.00,Wunderground v.1.15,2013-02-07 17:36:00,
2013-02-07 09:41:00,44.8,25.3,31.77,ENE,76,0.0,0.0,46,0.00,,,0.00,Wunderground v.1.15,2013-02-07 17:41:00,
2013-02-07 09:46:00,45.6,26.0,31.77,ENE,76,0.0,0.0,46,0.00,,,0.00,Wunderground v.1.15,2013-02-07 17:46:00,
2013-02-07 09:51:00,46.8,24.9,31.77,ENE,76,0.0,0.0,42,0.00,,,0.00,Wunderground v.1.15,2013-02-07 17:51:00,
2013-02-07 09:56:00,48.0,27.1,31.77,ENE,76,0.0,0.0,44,0.00,,,0.00,Wunderground v.1.15,2013-02-07 17:56:00,
2013-02-07 10:01:00,49.3,24.7,31.77,ENE,76,0.0,3.0,38,0.00,,,0.00,Wunderground v.1.15,2013-02-07 18:01:00,
2013-02-07 10:11:00,49.9,18.9,31.77,SE,136,1.0,1.0,29,0.00,,,0.00,Wunderground v.1.15,2013-02-07 18:11:00,
2013-02-07 10:16:00,49.9,18.0,31.77,SE,136,1.0,1.0,28,0.00,,,0.00,Wunderground v.1.15,2013-02-07 18:16:00,
2013-02-07 10:21:00,50.1,19.8,31.77,SE,136,0.0,0.0,30,0.00,,,0.00,Wunderground v.1.15,2013-02-07 18:21:00,
2013-02-07 10:26:00,50.2,19.9,31.77,SE,143,0.0,2.0,30,0.00,,,0.00,Wunderground v.1.15,2013-02-07 18:26:00,
2013-02-07 10:31:00,50.3,22.3,31.77,SW,236,1.0,1.0,33,0.00,,,0.00,Wunderground v.1.15,2013-02-07 18:31:00,
2013-02-07 10:41:00,50.5,21.7,31.77,SW,233,0.0,0.0,32,0.00,,,0.00,Wunderground v.1.15,2013-02-07 18:41:00,
2013-02-07 10:46:00,51.0,21.4,31.77,WSW,237,0.0,0.0,31,0.00,,,0.00,Wunderground v.1.15,2013-02-07 18:46:00,
2013-02-07 10:56:00,51.8,21.3,31.77,South,184,2.0,2.0,30,0.00,,,0.00,Wunderground v.1.15,2013-02-07 18:56:00,
2013-02-07 11:01:00,52.1,23.8,31.77,South,186,2.0,2.0,33,0.00,,,0.00,Wunderground v.1.15,2013-02-07 19:01:00,
2013-02-07 11:06:00,52.8,25.2,31.77,South,186,1.0,2.0,34,0.00,,,0.00,Wunderground v.1.15,2013-02-07 19:06:00,
2013-02-07 11:11:00,53.4,24.2,31.77,South,186,1.0,1.0,32,0.00,,,0.00,Wunderground v.1.15,2013-02-07 19:11:00,
2013-02-07 11:16:00,53.7,23.7,31.77,South,186,1.0,1.0,31,0.00,,,0.00,Wunderground v.1.15,2013-02-07 19:16:00,
2013-02-07 11:21:00,53.8,24.6,31.77,South,183,1.0,1.0,32,0.00,,,0.00,Wunderground v.1.15,2013-02-07 19:21:00,
2013-02-07 11:26:00,54.0,24.0,31.77,WSW,243,1.0,1.0,31,0.00,,,0.00,Wunderground v.1.15,2013-02-07 19:26:00,
2013-02-07 11:31:00,54.0,24.0,31.77,ESE,119,1.0,1.0,31,0.00,,,0.00,Wunderground v.1.15,2013-02-07 19:31:00,
2013-02-07 11:36:00,54.0,24.8,31.77,SSW,199,1.0,1.0,32,0.00,,,0.00,Wunderground v.1.15,2013-02-07 19:36:00,
2013-02-07 11:51:00,52.9,23.0,31.77,South,184,2.0,2.0,31,0.00,,,0.00,Wunderground v.1.15,2013-02-07 19:51:00,
2013-02-07 11:56:00,52.7,23.6,31.77,South,186,1.0,3.0,32,0.00,,,0.00,Wunderground v.1.15,2013-02-07 19:56:00,
2013-02-07 12:01:00,52.6,23.5,31.77,SSE,163,1.0,2.0,32,0.00,,,0.00,Wunderground v.1.15,2013-02-07 20:01:00,
2013-02-07 12:11:00,52.3,24.0,31.77,SSE,167,1.0,1.0,33,0.00,,,0.00,Wunderground v.1.15,2013-02-07 20:11:00,
2013-02-07 12:16:00,52.2,22.4,31.77,West,273,1.0,1.0,31,0.00,,,0.00,Wunderground v.1.15,2013-02-07 20:16:00,
2013-02-07 12:21:00,51.9,23.7,31.77,South,190,1.0,1.0,33,0.00,,,0.00,Wunderground v.1.15,2013-02-07 20:21:00,
2013-02-07 12:26:00,51.7,25.6,31.77,SW,226,1.0,1.0,36,0.00,,,0.00,Wunderground v.1.15,2013-02-07 20:26:00,
2013-02-07 12:31:00,51.4,23.9,31.77,South,180,1.0,2.0,34,0.00,,,0.00,Wunderground v.1.15,2013-02-07 20:31:00,
2013-02-07 12:36:00,51.4,23.9,31.77,SSW,198,1.0,2.0,34,0.00,,,0.00,Wunderground v.1.15,2013-02-07 20:36:00,
2013-02-07 12:41:00,51.4,24.6,31.77,West,260,1.0,1.0,35,0.00,,,0.00,Wunderground v.1.15,2013-02-07 20:41:00,
2013-02-07 12:46:00,51.5,26.1,31.77,SW,232,1.0,2.0,37,0.00,,,0.00,Wunderground v.1.15,2013-02-07 20:46:00,
2013-02-07 12:51:00,51.6,27.4,31.77,WNW,294,1.0,1.0,39,0.00,,,0.00,Wunderground v.1.15,2013-02-07 20:51:00,
2013-02-07 12:56:00,51.4,27.9,31.77,WNW,294,1.0,2.0,40,0.00,,,0.00,Wunderground v.1.15,2013-02-07 20:56:00,
2013-02-07 13:01:00,51.2,23.8,31.77,South,183,1.0,9.0,34,0.00,,,0.00,Wunderground v.1.15,2013-02-07 21:01:00,
2013-02-07 13:11:00,51.5,22.6,31.77,SSW,200,1.0,1.0,32,0.00,,,0.00,Wunderground v.1.15,2013-02-07 21:11:00,
2013-02-07 13:16:00,51.6,22.7,31.77,ESE,123,1.0,1.0,32,0.00,,,0.00,Wunderground v.1.15,2013-02-07 21:16:00,
2013-02-07 13:21:00,51.8,24.3,31.77,SSW,207,1.0,1.0,34,0.00,,,0.00,Wunderground v.1.15,2013-02-07 21:21:00,
2013-02-07 13:26:00,52.2,25.3,31.77,SSW,197,1.0,4.0,35,0.00,,,0.00,Wunderground v.1.15,2013-02-07 21:26:00,
2013-02-07 13:31:00,52.2,23.2,31.77,South,182,1.0,1.0,32,0.00,,,0.00,Wunderground v.1.15,2013-02-07 21:31:00,
2013-02-07 13:36:00,52.3,24.0,31.77,WSW,237,2.0,2.0,33,0.00,,,0.00,Wunderground v.1.15,2013-02-07 21:36:00,
2013-02-07 13:46:00,52.9,23.0,31.77,West,272,2.0,2.0,31,0.00,,,0.00,Wunderground v.1.15,2013-02-07 21:46:00,
2013-02-07 13:51:00,53.4,24.2,31.77,South,183,2.0,2.0,32,0.00,,,0.00,Wunderground v.1.15,2013-02-07 21:51:00,
2013-02-07 13:56:00,53.4,21.9,31.77,South,183,1.0,2.0,29,0.00,,,0.00,Wunderground v.1.15,2013-02-07 21:56:00,
2013-02-07 14:01:00,52.8,23.0,31.77,ESE,106,1.0,1.0,31,0.00,,,0.00,Wunderground v.1.15,2013-02-07 22:01:00,
2013-02-07 14:11:00,52.3,23.3,31.77,West,277,1.0,1.0,32,0.00,,,0.00,Wunderground v.1.15,2013-02-07 22:11:00,
2013-02-07 14:16:00,52.2,21.7,31.77,SE,140,1.0,1.0,30,0.00,,,0.00,Wunderground v.1.15,2013-02-07 22:16:00,
2013-02-07 14:21:00,51.9,22.2,31.77,South,176,1.0,3.0,31,0.00,,,0.00,Wunderground v.1.15,2013-02-07 22:21:00,
2013-02-07 14:26:00,52.0,22.3,31.77,South,169,1.0,3.0,31,0.00,,,0.00,Wunderground v.1.15,2013-02-07 22:26:00,
2013-02-07 14:31:00,52.2,20.0,31.77,SSE,152,1.0,1.0,28,0.00,,,0.00,Wunderground v.1.15,2013-02-07 22:31:00,
2013-02-07 14:41:00,52.1,22.3,31.77,West,271,1.0,1.0,31,0.00,,,0.00,Wunderground v.1.15,2013-02-07 22:41:00,
2013-02-07 14:46:00,52.6,22.8,31.77,SSE,163,1.0,1.0,31,0.00,,,0.00,Wunderground v.1.15,2013-02-07 22:46:00,
2013-02-07 14:51:00,52.7,22.9,31.77,South,171,1.0,1.0,31,0.00,,,0.00,Wunderground v.1.15,2013-02-07 22:51:00,
2013-02-07 14:56:00,52.6,26.4,31.77,South,169,0.0,1.0,36,0.00,,,0.00,Wunderground v.1.15,2013-02-07 22:56:00,
2013-02-07 15:01:00,52.3,26.1,31.77,SSW,202,0.0,6.0,36,0.00,,,0.00,Wunderground v.1.15,2013-02-07 23:01:00,
2013-02-07 15:06:00,51.9,24.4,31.77,ESE,106,0.0,6.0,34,0.00,,,0.00,Wunderground v.1.15,2013-02-07 23:06:00,
2013-02-07 15:11:00,51.7,26.9,31.77,South,175,0.0,3.0,38,0.00,,,0.00,Wunderground v.1.15,2013-02-07 23:11:00,
2013-02-07 15:21:00,50.7,24.0,31.77,South,186,1.0,1.0,35,0.00,,,0.00,Wunderground v.1.15,2013-02-07 23:21:00,
2013-02-07 15:26:00,50.5,23.8,31.77,South,180,0.0,1.0,35,0.00,,,0.00,Wunderground v.1.15,2013-02-07 23:26:00,
2013-02-07 15:31:00,50.2,26.2,31.77,South,184,0.0,0.0,39,0.00,,,0.00,Wunderground v.1.15,2013-02-07 23:31:00,
2013-02-07 15:41:00,49.7,25.1,31.77,South,184,0.0,0.0,38,0.00,,,0.00,Wunderground v.1.15,2013-02-07 23:41:00,
2013-02-07 15:46:00,49.3,26.0,31.77,South,184,0.0,0.0,40,0.00,,,0.00,Wunderground v.1.15,2013-02-07 23:46:00,
2013-02-07 15:51:00,48.6,25.9,31.77,South,184,1.0,1.0,41,0.00,,,0.00,Wunderground v.1.15,2013-02-07 23:51:00,
2013-02-07 15:56:00,48.0,26.0,31.77,South,184,1.0,1.0,42,0.00,,,0.00,Wunderground v.1.15,2013-02-07 23:56:00,
2013-02-07 16:01:00,47.5,24.9,31.77,South,186,1.0,1.0,41,0.00,,,0.00,Wunderground v.1.15,2013-02-08 00:01:00,
2013-02-07 16:06:00,47.2,24.7,31.77,South,186,1.0,1.0,41,0.00,,,0.00,Wunderground v.1.15,2013-02-08 00:06:00,
2013-02-07 16:11:00,46.9,25.0,31.77,South,186,0.0,4.0,42,0.00,,,0.00,Wunderground v.1.15,2013-02-08 00:11:00,
2013-02-07 16:16:00,46.5,25.2,31.77,South,186,0.0,4.0,43,0.00,,,0.00,Wunderground v.1.15,2013-02-08 00:16:00,
2013-02-07 16:21:00,46.3,25.6,31.77,South,186,0.0,0.0,44,0.00,,,0.00,Wunderground v.1.15,2013-02-08 00:21:00,
2013-02-07 16:26:00,46.0,27.4,31.77,South,186,0.0,0.0,48,0.00,,,0.00,Wunderground v.1.15,2013-02-08 00:26:00,
2013-02-07 16:31:00,45.8,26.7,31.77,South,186,0.0,0.0,47,0.00,,,0.00,Wunderground v.1.15,2013-02-08 00:31:00,
2013-02-07 16:36:00,45.5,25.9,31.77,South,187,0.0,2.0,46,0.00,,,0.00,Wunderground v.1.15,2013-02-08 00:36:00,
2013-02-07 16:41:00,45.2,26.1,31.77,South,187,0.0,0.0,47,0.00,,,0.00,Wunderground v.1.15,2013-02-08 00:41:00,
2013-02-07 16:46:00,45.0,24.9,31.77,South,187,0.0,0.0,45,0.00,,,0.00,Wunderground v.1.15,2013-02-08 00:46:00,
2013-02-07 16:51:00,44.7,25.7,31.77,South,187,0.0,0.0,47,0.00,,,0.00,Wunderground v.1.15,2013-02-08 00:51:00,
2013-02-07 16:56:00,44.4,26.9,31.77,South,187,0.0,0.0,50,0.00,,,0.00,Wunderground v.1.15,2013-02-08 00:56:00,
2013-02-07 17:01:00,44.1,26.1,31.77,South,187,0.0,5.0,49,0.00,,,0.00,Wunderground v.1.15,2013-02-08 01:01:00,
2013-02-07 17:06:00,43.8,26.8,31.77,South,187,0.0,5.0,51,0.00,,,0.00,Wunderground v.1.15,2013-02-08 01:06:00,
2013-02-07 17:16:00,43.1,26.7,31.77,South,187,0.0,0.0,52,0.00,,,0.00,Wunderground v.1.15,2013-02-08 01:16:00,
2013-02-07 17:21:00,42.6,26.6,31.77,South,187,0.0,0.0,53,0.00,,,0.00,Wunderground v.1.15,2013-02-08 01:21:00,
2013-02-07 17:26:00,41.9,26.4,31.77,South,187,0.0,0.0,54,0.00,,,0.00,Wunderground v.1.15,2013-02-08 01:26:00,
2013-02-07 17:31:00,41.3,26.8,31.77,South,187,0.0,0.0,56,0.00,,,0.00,Wunderground v.1.15,2013-02-08 01:31:00,
2013-02-07 17:36:00,40.7,25.3,31.77,South,187,0.0,0.0,54,0.00,,,0.00,Wunderground v.1.15,2013-02-08 01:36:00,
2013-02-07 17:41:00,40.0,25.6,31.77,South,187,0.0,0.0,56,0.00,,,0.00,Wunderground v.1.15,2013-02-08 01:41:00,
2013-02-07 17:46:00,39.3,25.7,31.77,South,187,0.0,0.0,58,0.00,,,0.00,Wunderground v.1.15,2013-02-08 01:46:00,
2013-02-07 17:51:00,38.7,26.0,31.77,South,187,0.0,0.0,60,0.00,,,0.00,Wunderground v.1.15,2013-02-08 01:51:00,
2013-02-07 17:56:00,38.1,26.2,31.77,South,187,0.0,0.0,62,0.00,,,0.00,Wunderground v.1.15,2013-02-08 01:56:00,
2013-02-07 18:01:00,37.7,25.8,31.77,South,187,0.0,3.0,62,0.00,,,0.00,Wunderground v.1.15,2013-02-08 02:01:00,
2013-02-07 18:06:00,37.2,25.8,31.77,South,187,0.0,3.0,63,0.00,,,0.00,Wunderground v.1.15,2013-02-08 02:06:00,
2013-02-07 18:11:00,36.8,25.8,31.77,South,187,0.0,0.0,64,0.00,,,0.00,Wunderground v.1.15,2013-02-08 02:11:00,
2013-02-07 18:16:00,36.5,25.5,31.77,South,187,0.0,0.0,64,0.00,,,0.00,Wunderground v.1.15,2013-02-08 02:16:00,
2013-02-07 18:21:00,36.1,25.5,31.77,South,187,0.0,0.0,65,0.00,,,0.00,Wunderground v.1.15,2013-02-08 02:21:00,
2013-02-07 18:26:00,35.8,25.5,31.77,South,187,0.0,0.0,66,0.00,,,0.00,Wunderground v.1.15,2013-02-08 02:26:00,
2013-02-07 18:36:00,35.1,24.1,31.77,South,187,0.0,0.0,64,0.00,,,0.00,Wunderground v.1.15,2013-02-08 02:36:00,
2013-02-07 18:41:00,34.8,23.1,31.77,South,187,0.0,0.0,62,0.00,,,0.00,Wunderground v.1.15,2013-02-08 02:41:00,
2013-02-07 18:46:00,34.5,23.2,31.77,South,187,0.0,0.0,63,0.00,,,0.00,Wunderground v.1.15,2013-02-08 02:46:00,
2013-02-07 18:51:00,34.4,22.7,31.77,South,187,0.0,0.0,62,0.00,,,0.00,Wunderground v.1.15,2013-02-08 02:51:00,
2013-02-07 18:56:00,34.4,23.5,31.77,South,187,0.0,0.0,64,0.00,,,0.00,Wunderground v.1.15,2013-02-08 02:56:00,
2013-02-07 19:01:00,34.1,22.8,31.77,South,187,0.0,1.0,63,0.00,,,0.00,Wunderground v.1.15,2013-02-08 03:01:00,
2013-02-07 19:06:00,33.8,22.5,31.77,South,187,0.0,1.0,63,0.00,,,0.00,Wunderground v.1.15,2013-02-08 03:06:00,
2013-02-07 19:16:00,33.4,21.8,31.77,South,187,0.0,1.0,62,0.00,,,0.00,Wunderground v.1.15,2013-02-08 03:16:00,
2013-02-07 19:21:00,33.2,21.6,31.77,South,187,0.0,0.0,62,0.00,,,0.00,Wunderground v.1.15,2013-02-08 03:21:00,
2013-02-07 19:26:00,33.1,21.1,31.77,South,187,0.0,0.0,61,0.00,,,0.00,Wunderground v.1.15,2013-02-08 03:26:00,
2013-02-07 19:31:00,33.0,21.8,31.77,South,187,0.0,0.0,63,0.00,,,0.00,Wunderground v.1.15,2013-02-08 03:31:00,
2013-02-07 19:36:00,32.8,21.2,31.77,South,187,0.0,0.0,62,0.00,,,0.00,Wunderground v.1.15,2013-02-08 03:36:00,
2013-02-07 19:41:00,32.7,21.1,31.77,South,187,0.0,0.0,62,0.00,,,0.00,Wunderground v.1.15,2013-02-08 03:41:00,
2013-02-07 19:46:00,32.5,20.5,31.77,South,187,0.0,0.0,61,0.00,,,0.00,Wunderground v.1.15,2013-02-08 03:46:00,
2013-02-07 19:51:00,32.4,20.0,31.77,South,187,0.0,0.0,60,0.00,,,0.00,Wunderground v.1.15,2013-02-08 03:51:00,
2013-02-07 19:56:00,32.3,19.6,31.77,South,187,0.0,0.0,59,0.00,,,0.00,Wunderground v.1.15,2013-02-08 03:56:00,
2013-02-07 20:01:00,32.1,19.0,31.77,South,187,0.0,1.0,58,0.00,,,0.00,Wunderground v.1.15,2013-02-08 04:01:00,
2013-02-07 20:06:00,32.0,18.9,31.77,South,187,0.0,1.0,58,0.00,,,0.00,Wunderground v.1.15,2013-02-08 04:06:00,
2013-02-07 20:11:00,31.9,18.8,31.77,South,187,0.0,1.0,58,0.00,,,0.00,Wunderground v.1.15,2013-02-08 04:11:00,
2013-02-07 20:16:00,31.8,18.7,31.77,South,187,0.0,1.0,58,0.00,,,0.00,Wunderground v.1.15,2013-02-08 04:16:00,
2013-02-07 20:26:00,31.7,18.6,31.77,South,187,0.0,0.0,58,0.00,,,0.00,Wunderground v.1.15,2013-02-08 04:26:00,
2013-02-07 20:31:00,31.5,18.0,31.77,South,187,0.0,0.0,57,0.00,,,0.00,Wunderground v.1.15,2013-02-08 04:31:00,
2013-02-07 20:36:00,31.3,17.4,31.77,South,187,0.0,0.0,56,0.00,,,0.00,Wunderground v.1.15,2013-02-08 04:36:00,
2013-02-07 20:41:00,31.3,18.2,31.77,South,187,0.0,0.0,58,0.00,,,0.00,Wunderground v.1.15,2013-02-08 04:41:00,
2013-02-07 20:46:00,31.2,17.3,31.77,South,187,0.0,0.0,56,0.00,,,0.00,Wunderground v.1.15,2013-02-08 04:46:00,
2013-02-07 20:51:00,31.2,17.7,31.77,South,187,0.0,2.0,57,0.00,,,0.00,Wunderground v.1.15,2013-02-08 04:51:00,
2013-02-07 20:56:00,31.0,16.7,31.77,South,187,0.0,2.0,55,0.00,,,0.00,Wunderground v.1.15,2013-02-08 04:56:00,
2013-02-07 21:01:00,31.0,17.1,31.77,South,187,1.0,1.0,56,0.00,,,0.00,Wunderground v.1.15,2013-02-08 05:01:00,
2013-02-07 21:06:00,30.9,17.0,31.77,South,187,0.0,1.0,56,0.00,,,0.00,Wunderground v.1.15,2013-02-08 05:06:00,
2013-02-07 21:11:00,30.8,16.9,31.77,South,187,0.0,0.0,56,0.00,,,0.00,Wunderground v.1.15,2013-02-08 05:11:00,
2013-02-07 21:16:00,30.7,16.4,31.77,South,187,0.0,0.0,55,0.00,,,0.00,Wunderground v.1.15,2013-02-08 05:16:00,
2013-02-07 21:21:00,30.6,15.5,31.77,South,187,0.0,0.0,53,0.00,,,0.00,Wunderground v.1.15,2013-02-08 05:21:00,
2013-02-07 21:26:00,30.5,14.5,31.77,South,187,0.0,0.0,51,0.00,,,0.00,Wunderground v.1.15,2013-02-08 05:26:00,
2013-02-07 21:31:00,30.4,15.7,31.77,South,187,0.0,0.0,54,0.00,,,0.00,Wunderground v.1.15,2013-02-08 05:31:00,
2013-02-07 21:41:00,30.0,16.2,31.77,South,187,0.0,0.0,56,0.00,,,0.00,Wunderground v.1.15,2013-02-08 05:41:00,
2013-02-07 21:46:00,29.7,16.3,31.77,South,187,1.0,1.0,57,0.00,,,0.00,Wunderground v.1.15,2013-02-08 05:46:00,
2013-02-07 21:56:00,29.7,17.9,31.77,South,187,1.0,1.0,61,0.00,,,0.00,Wunderground v.1.15,2013-02-08 05:56:00,
2013-02-07 22:01:00,29.7,17.9,31.77,South,187,1.0,1.0,61,0.00,,,0.00,Wunderground v.1.15,2013-02-08 06:01:00,
2013-02-07 22:06:00,29.7,16.7,31.77,South,187,1.0,1.0,58,0.00,,,0.00,Wunderground v.1.15,2013-02-08 06:06:00,
2013-02-07 22:16:00,30.2,15.5,31.77,South,187,0.0,0.0,54,0.00,,,0.00,Wunderground v.1.15,2013-02-08 06:16:00,
2013-02-07 22:21:00,31.5,14.5,31.77,East,101,1.0,1.0,49,0.00,,,0.00,Wunderground v.1.15,2013-02-08 06:21:00,
2013-02-07 22:26:00,32.3,16.2,31.77,ENE,75,1.0,1.0,51,0.00,,,0.00,Wunderground v.1.15,2013-02-08 06:26:00,
2013-02-07 22:31:00,32.6,19.4,31.77,ESE,118,0.0,3.0,58,0.00,,,0.00,Wunderground v.1.15,2013-02-08 06:31:00,
2013-02-07 22:41:00,32.1,22.4,31.77,ESE,119,0.0,0.0,67,0.00,,,0.00,Wunderground v.1.15,2013-02-08 06:41:00,
2013-02-07 22:46:00,32.0,24.0,31.77,ESE,119,0.0,0.0,72,0.00,,,0.00,Wunderground v.1.15,2013-02-08 06:46:00,
2013-02-07 22:51:00,31.8,24.8,31.77,ESE,119,0.0,0.0,75,0.00,,,0.00,Wunderground v.1.15,2013-02-08 06:51:00,
2013-02-07 22:56:00,31.8,25.7,31.77,ESE,119,0.0,0.0,78,0.00,,,0.00,Wunderground v.1.15,2013-02-08 06:56:00,
2013-02-07 23:06:00,31.6,25.5,31.77,ESE,119,0.0,4.0,78,0.00,,,0.00,Wunderground v.1.15,2013-02-08 07:06:00,
2013-02-07 23:16:00,31.5,26.3,31.77,ESE,119,0.0,0.0,81,0.00,,,0.00,Wunderground v.1.15,2013-02-08 07:16:00,
2013-02-07 23:21:00,31.5,26.6,31.77,SE,144,0.0,0.0,82,0.00,,,0.00,Wunderground v.1.15,2013-02-08 07:21:00,
2013-02-07 23:26:00,31.5,27.2,31.77,SE,144,1.0,1.0,84,0.00,,,0.00,Wunderground v.1.15,2013-02-08 07:26:00,
2013-02-07 23:31:00,31.4,27.4,31.77,SE,144,1.0,1.0,85,0.00,,,0.00,Wunderground v.1.15,2013-02-08 07:31:00,
2013-02-07 23:41:00,31.2,27.5,31.77,West,265,0.0,1.0,86,0.00,,,0.00,Wunderground v.1.15,2013-02-08 07:41:00,
2013-02-07 23:46:00,31.1,27.7,31.77,SE,133,0.0,1.0,87,0.00,,,0.00,Wunderground v.1.15,2013-02-08 07:46:00,
2013-02-07 23:51:00,31.0,27.6,31.77,SE,133,0.0,0.0,87,0.00,,,0.00,Wunderground v.1.15,2013-02-08 07:51:00,
2013-02-07 23:56:00,30.8,27.7,31.77,SSW,203,0.0,0.0,88,0.00,,,0.00,Wunderground v.1.15,2013-02-08 07:56:00,